createdAt,value
2023-05-15T00:00:24.743Z,4.32
2023-05-15T00:02:51.667Z,4.63
2023-05-15T00:05:18.705Z,4.85
2023-05-15T00:07:45.535Z,4.75
2023-05-15T00:10:12.802Z,4.03
2023-05-15T00:12:39.714Z,3.85
2023-05-15T00:15:07.247Z,4.53
2023-05-15T00:17:34.530Z,4.47
2023-05-15T00:20:01.947Z,3.92
2023-05-15T00:22:28.804Z,3.70
2023-05-15T00:24:55.755Z,3.42
2023-05-15T00:27:22.627Z,3.22
2023-05-15T00:29:49.520Z,2.83
2023-05-15T00:32:16.464Z,2.55
2023-05-15T00:34:43.272Z,1.95
2023-05-15T00:37:10.599Z,1.98
2023-05-15T00:39:37.461Z,1.48
2023-05-15T00:42:06.040Z,1.13
2023-05-15T00:44:33.793Z,0.60
2023-05-15T00:47:02.610Z,0.55
2023-05-15T00:49:30.308Z,0.70
2023-05-15T00:51:58.228Z,0.70
2023-05-15T00:54:25.839Z,0.80
2023-05-15T00:56:55.761Z,0.30
2023-05-15T00:59:24.520Z,0.47
2023-05-15T01:01:51.427Z,0.40
2023-05-15T01:04:18.769Z,0.75
2023-05-15T01:06:45.717Z,0.50
2023-05-15T01:09:14.098Z,1.02
2023-05-15T01:11:42.832Z,1.45
2023-05-15T01:14:10.166Z,1.15
2023-05-15T01:16:37.386Z,1.23
2023-05-15T01:19:05.040Z,1.20
2023-05-15T01:21:35.077Z,1.63
2023-05-15T01:24:23.347Z,1.23
2023-05-15T01:27:11.930Z,0.95
2023-05-15T01:29:46.884Z,0.68
2023-05-15T01:32:24.561Z,1.25
2023-05-15T01:35:11.189Z,1.10
2023-05-15T01:37:45.478Z,0.80
2023-05-15T01:40:16.246Z,1.20
2023-05-15T01:42:56.180Z,1.08
2023-05-15T01:45:25.423Z,1.05
2023-05-15T01:47:54.584Z,0.95
2023-05-15T01:50:22.129Z,0.88
2023-05-15T01:52:58.481Z,1.13
2023-05-15T01:55:27.721Z,1.15
2023-05-15T01:57:56.732Z,1.00
2023-05-15T02:00:25.605Z,0.90
2023-05-15T02:02:53.556Z,1.10
2023-05-15T02:05:20.799Z,1.00
2023-05-15T02:07:48.439Z,0.85
2023-05-15T02:10:17.234Z,1.55
2023-05-15T02:12:45.067Z,1.10
2023-05-15T02:15:13.345Z,1.15
2023-05-15T02:17:40.395Z,0.75
2023-05-15T02:20:08.450Z,0.68
2023-05-15T02:22:35.975Z,1.08
2023-05-15T02:25:02.885Z,1.30
2023-05-15T02:27:44.561Z,1.40
2023-05-15T02:31:02.713Z,1.02
2023-05-15T02:33:45.882Z,0.70
2023-05-15T02:36:19.677Z,1.02
2023-05-15T02:38:52.859Z,0.95
2023-05-15T02:41:22.054Z,0.60
2023-05-15T02:43:51.892Z,0.68
2023-05-15T02:46:20.652Z,0.90
2023-05-15T02:48:48.412Z,0.70
2023-05-15T02:51:15.543Z,0.80
2023-05-15T02:53:43.327Z,1.00
2023-05-15T02:56:10.465Z,0.95
2023-05-15T02:58:38.832Z,0.73
2023-05-15T03:01:06.194Z,0.50
2023-05-15T03:03:33.148Z,0.50
2023-05-15T03:06:01.122Z,0.30
2023-05-15T03:08:28.618Z,0.40
2023-05-15T03:10:55.543Z,0.60
2023-05-15T03:13:22.485Z,0.70
2023-05-15T03:15:49.791Z,0.60
2023-05-15T03:18:19.025Z,0.50
2023-05-15T03:20:48.498Z,0.55
2023-05-15T03:23:15.455Z,1.38
2023-05-15T03:25:42.757Z,1.50
2023-05-15T03:28:10.253Z,2.05
2023-05-15T03:30:37.109Z,1.98
2023-05-15T03:33:04.187Z,2.10
2023-05-15T03:35:32.390Z,1.90
2023-05-15T03:37:59.353Z,1.60
2023-05-15T03:40:26.333Z,1.77
2023-05-15T03:42:53.697Z,2.13
2023-05-15T03:45:21.521Z,2.08
2023-05-15T03:47:49.042Z,2.40
2023-05-15T03:50:16.538Z,2.53
2023-05-15T03:52:43.934Z,2.70
2023-05-15T03:55:10.845Z,2.38
2023-05-15T03:57:37.822Z,3.05
2023-05-15T04:00:10.059Z,3.47
2023-05-15T04:02:38.206Z,3.22
2023-05-15T04:05:06.823Z,3.10
2023-05-15T04:07:35.427Z,3.50
2023-05-15T04:10:02.939Z,3.53
2023-05-15T04:12:32.976Z,4.05
2023-05-15T04:15:20.067Z,4.18
2023-05-15T04:17:48.149Z,4.43
2023-05-15T04:20:18.024Z,4.75
2023-05-15T04:22:45.786Z,4.50
2023-05-15T04:25:14.783Z,4.68
2023-05-15T04:27:43.603Z,6.10
2023-05-15T04:30:11.939Z,5.32
2023-05-15T04:32:40.211Z,5.00
2023-05-15T04:35:12.229Z,4.90
2023-05-15T04:37:43.476Z,4.90
2023-05-15T04:40:10.757Z,5.30
2023-05-15T04:42:39.429Z,5.18
2023-05-15T04:45:07.947Z,5.32
2023-05-15T04:47:35.648Z,5.47
2023-05-15T04:50:03.006Z,5.60
2023-05-15T04:52:30.221Z,5.60
2023-05-15T04:54:57.517Z,6.22
2023-05-15T04:57:25.642Z,6.00
2023-05-15T04:59:52.982Z,6.25
2023-05-15T05:02:24.038Z,6.03
2023-05-15T05:04:51.183Z,6.22
2023-05-15T05:07:18.409Z,5.38
2023-05-15T05:09:45.714Z,5.50
2023-05-15T05:12:12.725Z,5.95
2023-05-15T05:14:42.170Z,6.88
2023-05-15T05:17:09.385Z,6.65
2023-05-15T05:19:36.650Z,7.43
2023-05-15T05:22:05.677Z,7.20
2023-05-15T05:24:37.664Z,6.53
2023-05-15T05:27:05.244Z,6.22
2023-05-15T05:29:32.649Z,5.68
2023-05-15T05:31:59.985Z,5.68
2023-05-15T05:34:27.021Z,5.57
2023-05-15T05:36:53.948Z,6.00
2023-05-15T05:39:21.449Z,6.28
2023-05-15T05:41:48.734Z,4.70
2023-05-15T05:44:15.651Z,5.65
2023-05-15T05:46:42.874Z,5.43
2023-05-15T05:49:09.888Z,5.75
2023-05-15T05:51:37.087Z,5.68
2023-05-15T05:54:04.512Z,5.65
2023-05-15T05:56:31.466Z,5.93
2023-05-15T05:59:01.756Z,6.40
2023-05-15T06:01:29.603Z,5.85
2023-05-15T06:03:57.633Z,5.60
2023-05-15T06:06:24.680Z,4.90
2023-05-15T06:08:52.191Z,5.32
2023-05-15T06:11:22.305Z,6.65
2023-05-15T06:13:50.653Z,5.20
2023-05-15T06:16:17.951Z,4.80
2023-05-15T06:18:44.814Z,5.85
2023-05-15T06:21:11.733Z,5.18
2023-05-15T06:23:39.416Z,5.15
2023-05-15T06:26:06.400Z,4.72
2023-05-15T06:28:33.677Z,4.75
2023-05-15T06:31:00.588Z,4.57
2023-05-15T06:33:27.478Z,4.25
2023-05-15T06:35:54.793Z,4.32
2023-05-15T06:38:21.692Z,4.07
2023-05-15T06:40:48.485Z,3.30
2023-05-15T06:43:15.424Z,2.97
2023-05-15T06:45:42.280Z,3.22
2023-05-15T06:48:09.231Z,4.10
2023-05-15T06:50:36.609Z,3.53
2023-05-15T06:53:03.886Z,3.40
2023-05-15T06:55:30.916Z,3.80
2023-05-15T06:57:57.743Z,4.00
2023-05-15T07:00:24.959Z,3.20
2023-05-15T07:02:51.935Z,3.00
2023-05-15T07:05:19.321Z,2.60
2023-05-15T07:07:46.363Z,3.15
2023-05-15T07:10:13.238Z,2.80
2023-05-15T07:12:40.552Z,2.90
2023-05-15T07:15:07.995Z,2.20
2023-05-15T07:17:34.962Z,2.00
2023-05-15T07:20:02.074Z,2.60
2023-05-15T07:22:29.414Z,1.92
2023-05-15T07:24:56.320Z,2.03
2023-05-15T07:27:23.244Z,2.20
2023-05-15T07:29:50.654Z,2.10
2023-05-15T07:32:18.008Z,2.00
2023-05-15T07:34:44.853Z,2.22
2023-05-15T07:37:11.766Z,2.20
2023-05-15T07:39:38.748Z,2.47
2023-05-15T07:42:06.265Z,2.05
2023-05-15T07:44:33.168Z,2.63
2023-05-15T07:47:00.007Z,2.20
2023-05-15T07:49:27.298Z,1.83
2023-05-15T07:51:54.154Z,1.80
2023-05-15T07:54:21.248Z,2.03
2023-05-15T07:56:48.547Z,2.50
2023-05-15T07:59:15.597Z,2.38
2023-05-15T08:01:42.534Z,2.28
2023-05-15T08:04:09.909Z,2.40
2023-05-15T08:06:39.875Z,1.80
2023-05-15T08:09:06.844Z,2.00
2023-05-15T08:11:33.969Z,2.00
2023-05-15T08:14:01.250Z,1.70
2023-05-15T08:16:28.278Z,2.20
2023-05-15T08:19:01.127Z,1.98
2023-05-15T08:21:28.408Z,2.00
2023-05-15T08:23:56.085Z,2.03
2023-05-15T08:26:23.151Z,1.70
2023-05-15T08:28:50.524Z,2.50
2023-05-15T08:31:17.898Z,2.20
2023-05-15T08:33:45.268Z,1.75
2023-05-15T08:36:12.233Z,1.95
2023-05-15T08:38:39.261Z,1.63
2023-05-15T08:41:23.501Z,1.40
2023-05-15T08:43:57.744Z,1.50
2023-05-15T08:46:25.657Z,1.40
2023-05-15T08:48:54.651Z,1.50
2023-05-15T08:51:22.346Z,1.92
2023-05-15T08:53:50.690Z,1.60
2023-05-15T08:56:19.111Z,1.50
2023-05-15T08:58:46.143Z,1.70
2023-05-15T09:01:15.733Z,1.40
2023-05-15T09:03:42.641Z,1.77
2023-05-15T09:06:10.645Z,1.40
2023-05-15T09:08:38.891Z,1.63
2023-05-15T09:11:07.972Z,1.30
2023-05-15T09:13:35.251Z,1.10
2023-05-15T09:16:02.238Z,1.83
2023-05-15T09:18:29.588Z,1.17
2023-05-15T09:20:56.673Z,1.50
2023-05-15T09:23:28.113Z,1.58
2023-05-15T09:25:57.083Z,1.48
2023-05-15T09:28:28.450Z,1.23
2023-05-15T09:31:03.978Z,1.25
2023-05-15T09:33:38.915Z,1.10
2023-05-15T09:36:07.824Z,1.00
2023-05-15T09:38:43.476Z,1.05
2023-05-15T09:41:10.468Z,0.77
2023-05-15T09:43:39.198Z,0.93
2023-05-15T09:46:08.365Z,0.75
2023-05-15T09:48:36.195Z,0.80
2023-05-15T09:51:05.818Z,0.80
2023-05-15T09:53:32.857Z,2.42
2023-05-15T09:55:59.755Z,2.25
2023-05-15T09:58:26.671Z,1.65
2023-05-15T10:00:53.529Z,0.70
2023-05-15T10:03:20.924Z,0.82
2023-05-15T10:05:48.178Z,0.85
2023-05-15T10:08:27.269Z,0.70
2023-05-15T10:10:55.997Z,1.02
2023-05-15T10:13:23.645Z,0.90
2023-05-15T10:15:52.570Z,1.20
2023-05-15T10:18:22.717Z,0.80
2023-05-15T10:20:50.013Z,0.95
2023-05-15T10:23:20.523Z,1.10
2023-05-15T10:25:50.221Z,0.55
2023-05-15T10:28:17.976Z,1.00
2023-05-15T10:30:46.319Z,0.90
2023-05-15T10:33:14.186Z,1.33
2023-05-15T10:35:42.473Z,1.15
2023-05-15T10:38:11.331Z,1.50
2023-05-15T10:40:40.899Z,2.50
2023-05-15T10:43:11.545Z,1.27
2023-05-15T10:45:39.925Z,1.00
2023-05-15T10:48:09.323Z,0.90
2023-05-15T10:50:37.777Z,0.75
2023-05-15T10:53:04.838Z,1.10
2023-05-15T10:55:31.925Z,1.33
2023-05-15T10:57:58.975Z,1.05
2023-05-15T11:00:27.994Z,1.10
2023-05-15T11:02:57.302Z,0.75
2023-05-15T11:05:25.652Z,0.95
2023-05-15T11:08:21.683Z,1.10
2023-05-15T11:10:48.948Z,1.13
2023-05-15T11:13:15.885Z,0.90
2023-05-15T11:15:47.004Z,0.90
2023-05-15T11:18:14.257Z,0.95
2023-05-15T11:20:42.909Z,1.08
2023-05-15T11:23:09.887Z,1.45
2023-05-15T11:25:37.410Z,1.20
2023-05-15T11:28:05.229Z,0.80
2023-05-15T11:30:40.020Z,0.90
2023-05-15T11:33:13.888Z,0.82
2023-05-15T11:35:43.973Z,1.00
2023-05-15T11:38:10.966Z,0.73
2023-05-15T11:40:52.542Z,1.10
2023-05-15T11:43:26.530Z,1.02
2023-05-15T11:45:58.489Z,1.02
2023-05-15T11:48:31.652Z,0.90
2023-05-15T11:50:58.607Z,3.30
2023-05-15T11:53:26.750Z,1.13
2023-05-15T11:55:54.611Z,1.40
2023-05-15T11:58:23.542Z,1.20
2023-05-15T12:00:51.710Z,2.92
2023-05-15T12:03:27.315Z,2.60
2023-05-15T12:05:58.892Z,1.33
2023-05-15T12:08:32.437Z,12.35
2023-05-15T12:11:00.849Z,1.48
2023-05-15T12:13:28.637Z,1.10
2023-05-15T12:15:56.988Z,1.20
2023-05-15T12:18:24.043Z,2.25
2023-05-15T12:20:54.510Z,1.70
2023-05-15T12:23:24.023Z,1.42
2023-05-15T12:25:55.124Z,1.40
2023-05-15T12:28:22.859Z,1.23
2023-05-15T12:30:50.835Z,2.10
2023-05-15T12:33:18.508Z,3.45
2023-05-15T12:35:52.205Z,1.83
2023-05-15T12:38:22.337Z,1.42
2023-05-15T12:40:53.872Z,2.88
2023-05-15T12:43:25.254Z,1.17
2023-05-15T12:45:56.444Z,1.20
2023-05-15T12:48:23.533Z,0.90
2023-05-15T12:50:50.437Z,0.98
2023-05-15T12:53:17.656Z,0.80
2023-05-15T12:55:46.522Z,1.08
2023-05-15T12:58:15.792Z,1.10
2023-05-15T13:00:46.396Z,1.00
2023-05-15T13:03:14.099Z,1.10
2023-05-15T13:05:45.499Z,1.17
2023-05-15T13:08:19.229Z,1.00
2023-05-15T13:10:47.226Z,1.20
2023-05-15T13:13:15.127Z,1.20
2023-05-15T13:15:45.484Z,1.08
2023-05-15T13:18:16.762Z,1.20
2023-05-15T13:20:45.663Z,1.10
2023-05-15T13:23:25.841Z,1.15
2023-05-15T13:25:52.671Z,1.38
2023-05-15T13:28:19.527Z,1.35
2023-05-15T13:30:46.265Z,0.88
2023-05-15T13:33:13.248Z,1.00
2023-05-15T13:35:42.965Z,0.80
2023-05-15T13:38:11.832Z,1.25
2023-05-15T13:40:39.346Z,1.17
2023-05-15T13:43:06.814Z,0.77
2023-05-15T13:45:34.626Z,0.80
2023-05-15T13:48:01.971Z,1.00
2023-05-15T13:50:29.249Z,0.82
2023-05-15T13:52:56.423Z,1.10
2023-05-15T13:55:23.916Z,1.00
2023-05-15T13:57:51.609Z,0.80
2023-05-15T14:00:19.824Z,1.20
2023-05-15T14:02:47.257Z,0.70
2023-05-15T14:05:16.379Z,0.98
2023-05-15T14:07:43.662Z,0.85
2023-05-15T14:10:11.228Z,1.30
2023-05-15T14:12:38.412Z,0.90
2023-05-15T14:15:05.922Z,1.40
2023-05-15T14:17:32.862Z,1.52
2023-05-15T14:20:00.201Z,1.73
2023-05-15T14:22:27.370Z,1.10
2023-05-15T14:24:54.122Z,1.20
2023-05-15T14:27:21.207Z,1.90
2023-05-15T14:29:49.212Z,1.08
2023-05-15T14:32:17.182Z,1.00
2023-05-15T14:34:44.773Z,0.88
2023-05-15T14:37:11.989Z,1.20
2023-05-15T14:39:39.082Z,1.20
2023-05-15T14:42:06.584Z,1.35
2023-05-15T14:44:34.145Z,1.02
2023-05-15T14:47:13.592Z,1.50
2023-05-15T14:49:42.115Z,1.40
2023-05-15T14:52:11.139Z,0.90
2023-05-15T14:54:38.920Z,0.88
2023-05-15T14:57:07.062Z,1.27
2023-05-15T14:59:34.355Z,1.30
2023-05-15T15:02:01.313Z,1.23
2023-05-15T15:04:30.520Z,1.13
2023-05-15T15:06:57.526Z,0.90
2023-05-15T15:09:28.393Z,1.20
2023-05-15T15:11:55.857Z,1.27
2023-05-15T15:14:23.052Z,1.60
2023-05-15T15:16:50.342Z,1.25
2023-05-15T15:19:19.666Z,0.63
2023-05-15T15:21:47.089Z,1.00
2023-05-15T15:24:14.004Z,1.05
2023-05-15T15:26:41.415Z,1.20
2023-05-15T15:29:08.301Z,2.53
2023-05-15T15:31:35.162Z,2.15
2023-05-15T15:34:05.155Z,1.40
2023-05-15T15:36:32.864Z,0.98
2023-05-15T15:38:59.749Z,1.02
2023-05-15T15:41:30.613Z,1.20
2023-05-15T15:43:57.851Z,1.30
2023-05-15T15:46:25.095Z,1.10
2023-05-15T15:48:51.997Z,1.52
2023-05-15T15:51:18.796Z,1.60
2023-05-15T15:53:45.603Z,1.50
2023-05-15T15:56:12.434Z,1.67
2023-05-15T15:58:39.218Z,1.58
2023-05-15T16:01:06.368Z,2.40
2023-05-15T16:03:33.460Z,1.75
2023-05-15T16:06:00.855Z,1.50
2023-05-15T16:08:27.720Z,1.35
2023-05-15T16:10:55.114Z,1.65
2023-05-15T16:13:22.140Z,1.65
2023-05-15T16:15:48.940Z,1.63
2023-05-15T16:18:15.840Z,1.90
2023-05-15T16:20:42.674Z,1.23
2023-05-15T16:23:11.740Z,1.27
2023-05-15T16:25:38.595Z,1.35
2023-05-15T16:28:05.404Z,3.30
2023-05-15T16:30:47.447Z,2.80
2023-05-15T16:33:17.544Z,1.88
2023-05-15T16:35:44.786Z,1.90
2023-05-15T16:38:12.141Z,2.20
2023-05-15T16:40:39.109Z,1.45
2023-05-15T16:43:06.201Z,1.80
2023-05-15T16:45:32.975Z,1.85
2023-05-15T16:47:59.909Z,1.65
2023-05-15T16:50:27.210Z,3.28
2023-05-15T16:52:54.582Z,2.72
2023-05-15T16:55:21.887Z,1.90
2023-05-15T16:57:48.746Z,2.90
2023-05-15T17:00:16.413Z,1.83
2023-05-15T17:02:43.924Z,1.85
2023-05-15T17:05:11.823Z,2.20
2023-05-15T17:07:39.215Z,1.70
2023-05-15T17:10:07.639Z,1.77
2023-05-15T17:12:34.948Z,1.95
2023-05-15T17:15:02.281Z,1.50
2023-05-15T17:17:29.171Z,1.40
2023-05-15T17:19:57.013Z,1.60
2023-05-15T17:22:24.074Z,2.08
2023-05-15T17:24:52.261Z,1.80
2023-05-15T17:27:20.151Z,2.10
2023-05-15T17:29:47.889Z,3.00
2023-05-15T17:32:16.795Z,2.78
2023-05-15T17:34:44.452Z,2.80
2023-05-15T17:37:11.276Z,2.45
2023-05-15T17:39:38.099Z,4.32
2023-05-15T17:42:05.549Z,2.40
2023-05-15T17:44:32.349Z,2.38
2023-05-15T17:46:59.631Z,2.00
2023-05-15T17:49:26.738Z,1.60
2023-05-15T17:51:53.970Z,1.70
2023-05-15T17:54:20.905Z,1.80
2023-05-15T17:56:48.452Z,1.25
2023-05-15T17:59:15.312Z,1.80
2023-05-15T18:01:42.293Z,1.65
2023-05-15T18:04:09.721Z,1.65
2023-05-15T18:06:36.738Z,1.63
2023-05-15T18:09:05.177Z,1.60
2023-05-15T18:11:32.309Z,1.70
2023-05-15T18:13:59.646Z,2.38
2023-05-15T18:16:26.820Z,1.75
2023-05-15T18:18:53.863Z,1.80
2023-05-15T18:21:20.715Z,2.00
2023-05-15T18:23:47.875Z,2.10
2023-05-15T18:26:14.681Z,1.90
2023-05-15T18:28:41.752Z,2.30
2023-05-15T18:31:08.700Z,2.35
2023-05-15T18:33:35.809Z,1.73
2023-05-15T18:36:03.222Z,1.63
2023-05-15T18:38:31.508Z,2.05
2023-05-15T18:40:58.317Z,2.05
2023-05-15T18:43:25.073Z,1.90
2023-05-15T18:45:52.308Z,2.25
2023-05-15T18:48:19.056Z,2.30
2023-05-15T18:50:46.084Z,3.20
2023-05-15T18:53:12.937Z,2.65
2023-05-15T18:55:39.820Z,2.60
2023-05-15T18:58:07.054Z,1.90
2023-05-15T19:00:43.566Z,2.00
2023-05-15T19:03:10.678Z,1.88
2023-05-15T19:05:38.063Z,2.20
2023-05-15T19:08:04.851Z,2.03
2023-05-15T19:10:31.721Z,2.00
2023-05-15T19:12:59.034Z,1.55
2023-05-15T19:15:26.650Z,1.65
2023-05-15T19:17:53.865Z,1.50
2023-05-15T19:20:21.143Z,1.67
2023-05-15T19:22:48.534Z,6.93
2023-05-15T19:25:15.395Z,2.38
2023-05-15T19:27:42.282Z,5.35
2023-05-15T19:30:10.013Z,7.65
2023-05-15T19:32:37.773Z,6.82
2023-05-15T19:35:05.637Z,5.93
2023-05-15T19:37:32.497Z,4.05
2023-05-15T19:39:59.320Z,3.10
2023-05-15T19:42:26.483Z,3.10
2023-05-15T19:44:53.334Z,2.78
2023-05-15T19:47:20.326Z,2.95
2023-05-15T19:49:47.142Z,3.17
2023-05-15T19:52:13.991Z,3.10
2023-05-15T19:54:40.813Z,3.55
2023-05-15T19:57:07.588Z,2.88
2023-05-15T19:59:34.461Z,3.22
2023-05-15T20:02:02.803Z,4.95
2023-05-15T20:04:29.788Z,6.03
2023-05-15T20:06:56.609Z,6.10
2023-05-15T20:09:23.396Z,5.22
2023-05-15T20:11:51.109Z,5.47
2023-05-15T20:14:18.300Z,4.00
2023-05-15T20:16:45.199Z,4.55
2023-05-15T20:19:12.619Z,4.72
2023-05-15T20:21:39.459Z,4.78
2023-05-15T20:24:07.114Z,3.85
2023-05-15T20:26:36.036Z,4.07
2023-05-15T20:29:03.702Z,3.22
2023-05-15T20:31:30.845Z,3.17
2023-05-15T20:33:59.193Z,3.10
2023-05-15T20:36:26.189Z,3.25
2023-05-15T20:38:53.123Z,3.00
2023-05-15T20:41:22.224Z,3.33
2023-05-15T20:43:50.005Z,2.50
2023-05-15T20:46:17.120Z,1.23
2023-05-15T20:48:44.052Z,1.80
2023-05-15T20:51:11.317Z,1.60
2023-05-15T20:53:40.774Z,2.17
2023-05-15T20:56:07.692Z,2.40
2023-05-15T20:58:35.067Z,1.80
2023-05-15T21:01:02.382Z,1.60
2023-05-15T21:03:29.552Z,1.70
2023-05-15T21:05:57.384Z,1.80
2023-05-15T21:08:25.033Z,2.20
2023-05-15T21:10:55.371Z,2.67
2023-05-15T21:13:22.735Z,1.55
2023-05-15T21:15:50.283Z,1.38
2023-05-15T21:18:18.649Z,1.70
2023-05-15T21:20:45.510Z,1.92
2023-05-15T21:23:12.360Z,1.95
2023-05-15T21:25:39.191Z,2.25
2023-05-15T21:28:06.436Z,2.92
2023-05-15T21:30:33.501Z,3.15
2023-05-15T21:33:01.950Z,3.30
2023-05-15T21:35:31.002Z,3.28
2023-05-15T21:37:57.960Z,2.50
2023-05-15T21:40:25.507Z,1.70
2023-05-15T21:42:52.700Z,1.90
2023-05-15T21:45:19.577Z,2.50
2023-05-15T21:47:46.482Z,2.30
2023-05-15T21:50:13.342Z,2.55
2023-05-15T21:52:40.091Z,2.63
2023-05-15T21:55:07.537Z,2.70
2023-05-15T21:57:34.357Z,2.10
2023-05-15T22:00:01.273Z,1.80
2023-05-15T22:02:28.037Z,1.42
2023-05-15T22:04:54.858Z,1.15
2023-05-15T22:07:21.757Z,1.35
2023-05-15T22:09:48.613Z,0.95
2023-05-15T22:12:15.488Z,1.00
2023-05-15T22:14:54.564Z,1.10
2023-05-15T22:17:27.229Z,1.65
2023-05-15T22:19:54.247Z,1.40
2023-05-15T22:22:21.447Z,1.10
2023-05-15T22:24:48.242Z,1.30
2023-05-15T22:27:16.727Z,1.00
2023-05-15T22:29:43.770Z,0.80
2023-05-15T22:32:10.801Z,1.00
2023-05-15T22:34:38.038Z,1.08
2023-05-15T22:37:06.200Z,1.05
2023-05-15T22:39:33.414Z,1.00
2023-05-15T22:42:00.252Z,1.00
2023-05-15T22:44:27.589Z,1.10
2023-05-15T22:46:54.309Z,1.02
2023-05-15T22:49:25.452Z,1.10
2023-05-15T22:51:53.835Z,1.10
2023-05-15T22:54:24.139Z,1.00
2023-05-15T22:56:52.484Z,0.95
2023-05-15T22:59:19.847Z,0.90
2023-05-15T23:01:47.569Z,0.70
2023-05-15T23:04:16.749Z,0.88
2023-05-15T23:06:43.663Z,1.30
2023-05-15T23:09:10.525Z,0.77
2023-05-15T23:11:37.866Z,0.88
2023-05-15T23:14:04.780Z,0.95
2023-05-15T23:16:31.792Z,0.80
2023-05-15T23:18:59.002Z,0.57
2023-05-15T23:21:26.238Z,0.80
2023-05-15T23:23:53.026Z,0.70
2023-05-15T23:26:19.999Z,0.85
2023-05-15T23:28:47.166Z,0.73
2023-05-15T23:31:14.537Z,0.50
2023-05-15T23:33:41.750Z,0.60
2023-05-15T23:36:08.955Z,0.75
2023-05-15T23:38:35.923Z,0.80
2023-05-15T23:41:02.795Z,0.80
2023-05-15T23:43:29.761Z,0.75
2023-05-15T23:45:57.026Z,0.80
2023-05-15T23:48:23.965Z,0.80
2023-05-15T23:50:52.362Z,0.90
2023-05-15T23:53:19.295Z,1.10
2023-05-15T23:55:46.132Z,1.10
2023-05-15T23:58:12.943Z,1.33
